sensor_id;sensor_type;location;lat;lon;timestamp;pressure;altitude;pressure_sealevel;temperature
78917;BMP280;68315;48.608;11.436;2023-05-17T00:00:42;97382.66;;;9.64
78917;BMP280;68315;48.608;11.436;2023-05-17T00:03:07;97378.97;;;9.62
78917;BMP280;68315;48.608;11.436;2023-05-17T00:05:32;97385.50;;;9.59
78917;BMP280;68315;48.608;11.436;2023-05-17T00:07:57;97384.06;;;9.52
78917;BMP280;68315;48.608;11.436;2023-05-17T00:10:23;97390.63;;;9.49
78917;BMP280;68315;48.608;11.436;2023-05-17T00:12:48;97392.38;;;9.47
78917;BMP280;68315;48.608;11.436;2023-05-17T00:15:13;97388.41;;;9.42
78917;BMP280;68315;48.608;11.436;2023-05-17T00:17:38;97390.22;;;9.40
78917;BMP280;68315;48.608;11.436;2023-05-17T00:20:04;97392.50;;;9.36
78917;BMP280;68315;48.608;11.436;2023-05-17T00:22:29;97393.75;;;9.34
78917;BMP280;68315;48.608;11.436;2023-05-17T00:24:55;97381.28;;;9.33
78917;BMP280;68315;48.608;11.436;2023-05-17T00:27:20;97389.31;;;9.31
78917;BMP280;68315;48.608;11.436;2023-05-17T00:29:46;97390.34;;;9.28
78917;BMP280;68315;48.608;11.436;2023-05-17T00:32:11;97396.09;;;9.25
78917;BMP280;68315;48.608;11.436;2023-05-17T00:34:36;97401.16;;;9.21
78917;BMP280;68315;48.608;11.436;2023-05-17T00:37:01;97406.63;;;9.21
78917;BMP280;68315;48.608;11.436;2023-05-17T00:39:27;97402.16;;;9.18
78917;BMP280;68315;48.608;11.436;2023-05-17T00:41:52;97403.66;;;9.19
78917;BMP280;68315;48.608;11.436;2023-05-17T00:44:17;97407.41;;;9.16
78917;BMP280;68315;48.608;11.436;2023-05-17T00:46:42;97407.41;;;9.16
78917;BMP280;68315;48.608;11.436;2023-05-17T00:49:08;97407.91;;;9.14
78917;BMP280;68315;48.608;11.436;2023-05-17T00:51:34;97407.91;;;9.14
78917;BMP280;68315;48.608;11.436;2023-05-17T00:53:59;97408.00;;;9.09
78917;BMP280;68315;48.608;11.436;2023-05-17T00:56:25;97406.50;;;9.08
78917;BMP280;68315;48.608;11.436;2023-05-17T00:58:51;97412.22;;;9.10
78917;BMP280;68315;48.608;11.436;2023-05-17T01:01:17;97422.94;;;9.08
78917;BMP280;68315;48.608;11.436;2023-05-17T01:03:42;97417.22;;;9.06
78917;BMP280;68315;48.608;11.436;2023-05-17T01:06:07;97419.75;;;9.04
78917;BMP280;68315;48.608;11.436;2023-05-17T01:08:33;97418.03;;;9.01
78917;BMP280;68315;48.608;11.436;2023-05-17T01:11:25;97420.03;;;9.00
78917;BMP280;68315;48.608;11.436;2023-05-17T01:14:21;97427.28;;;8.98
78917;BMP280;68315;48.608;11.436;2023-05-17T01:17:00;97424.53;;;8.98
78917;BMP280;68315;48.608;11.436;2023-05-17T01:20:03;97430.06;;;8.92
78917;BMP280;68315;48.608;11.436;2023-05-17T01:22:49;97435.31;;;8.90
78917;BMP280;68315;48.608;11.436;2023-05-17T01:25:35;97433.09;;;8.89
78917;BMP280;68315;48.608;11.436;2023-05-17T01:28:05;97437.09;;;8.88
78917;BMP280;68315;48.608;11.436;2023-05-17T01:30:31;97440.06;;;8.90
78917;BMP280;68315;48.608;11.436;2023-05-17T01:32:57;97436.84;;;8.86
78917;BMP280;68315;48.608;11.436;2023-05-17T01:35:23;97442.06;;;8.89
78917;BMP280;68315;48.608;11.436;2023-05-17T01:37:49;97445.81;;;8.86
78917;BMP280;68315;48.608;11.436;2023-05-17T01:40:15;97438.34;;;8.87
78917;BMP280;68315;48.608;11.436;2023-05-17T01:42:41;97445.81;;;8.86
78917;BMP280;68315;48.608;11.436;2023-05-17T01:45:12;97447.09;;;8.85
78917;BMP280;68315;48.608;11.436;2023-05-17T01:50:06;97436.63;;;8.84
78917;BMP280;68315;48.608;11.436;2023-05-17T01:52:49;97450.09;;;8.82
78917;BMP280;68315;48.608;11.436;2023-05-17T01:58:02;97455.09;;;8.78
78917;BMP280;68315;48.608;11.436;2023-05-17T02:00:30;97452.88;;;8.76
78917;BMP280;68315;48.608;11.436;2023-05-17T02:02:56;97454.34;;;8.77
78917;BMP280;68315;48.608;11.436;2023-05-17T02:05:21;97454.13;;;8.75
78917;BMP280;68315;48.608;11.436;2023-05-17T02:07:46;97455.38;;;8.74
78917;BMP280;68315;48.608;11.436;2023-05-17T02:10:12;97452.19;;;8.70
78917;BMP280;68315;48.608;11.436;2023-05-17T02:12:37;97451.44;;;8.70
78917;BMP280;68315;48.608;11.436;2023-05-17T02:15:02;97452.44;;;8.67
78917;BMP280;68315;48.608;11.436;2023-05-17T02:17:28;97454.97;;;8.65
78917;BMP280;68315;48.608;11.436;2023-05-17T02:19:53;97458.94;;;8.64
78917;BMP280;68315;48.608;11.436;2023-05-17T02:22:18;97455.97;;;8.62
78917;BMP280;68315;48.608;11.436;2023-05-17T02:24:43;97456.97;;;8.58
78917;BMP280;68315;48.608;11.436;2023-05-17T02:27:09;97462.00;;;8.54
78917;BMP280;68315;48.608;11.436;2023-05-17T02:29:34;97455.03;;;8.53
78917;BMP280;68315;48.608;11.436;2023-05-17T02:32:00;97455.81;;;8.48
78917;BMP280;68315;48.608;11.436;2023-05-17T02:34:25;97451.88;;;8.44
78917;BMP280;68315;48.608;11.436;2023-05-17T02:36:50;97459.34;;;8.38
78917;BMP280;68315;48.608;11.436;2023-05-17T02:39:16;97463.41;;;8.31
78917;BMP280;68315;48.608;11.436;2023-05-17T02:41:41;97459.22;;;8.25
78917;BMP280;68315;48.608;11.436;2023-05-17T02:44:07;97457.22;;;8.20
78917;BMP280;68315;48.608;11.436;2023-05-17T02:46:32;97465.69;;;8.16
78917;BMP280;68315;48.608;11.436;2023-05-17T02:48:57;97472.19;;;8.13
78917;BMP280;68315;48.608;11.436;2023-05-17T02:51:23;97466.22;;;8.09
78917;BMP280;68315;48.608;11.436;2023-05-17T02:53:48;97465.75;;;8.05
78917;BMP280;68315;48.608;11.436;2023-05-17T02:56:13;97469.28;;;8.00
78917;BMP280;68315;48.608;11.436;2023-05-17T02:58:38;97470.75;;;7.96
78917;BMP280;68315;48.608;11.436;2023-05-17T03:01:04;97476.78;;;7.94
78917;BMP280;68315;48.608;11.436;2023-05-17T03:03:29;97481.25;;;7.92
78917;BMP280;68315;48.608;11.436;2023-05-17T03:05:59;97477.53;;;7.89
78917;BMP280;68315;48.608;11.436;2023-05-17T03:08:24;97485.97;;;7.86
78917;BMP280;68315;48.608;11.436;2023-05-17T03:10:50;97485.50;;;7.81
78917;BMP280;68315;48.608;11.436;2023-05-17T03:13:16;97480.78;;;7.82
78917;BMP280;68315;48.608;11.436;2023-05-17T03:15:41;97490.22;;;7.81
78917;BMP280;68315;48.608;11.436;2023-05-17T03:18:06;97496.22;;;7.79
78917;BMP280;68315;48.608;11.436;2023-05-17T03:20:32;97496.97;;;7.80
78917;BMP280;68315;48.608;11.436;2023-05-17T03:22:57;97495.69;;;7.75
78917;BMP280;68315;48.608;11.436;2023-05-17T03:25:22;97505.66;;;7.73
78917;BMP280;68315;48.608;11.436;2023-05-17T03:27:47;97504.22;;;7.72
78917;BMP280;68315;48.608;11.436;2023-05-17T03:30:13;97500.47;;;7.69
78917;BMP280;68315;48.608;11.436;2023-05-17T03:32:38;97504.22;;;7.66
78917;BMP280;68315;48.608;11.436;2023-05-17T03:35:04;97512.88;;;7.65
78917;BMP280;68315;48.608;11.436;2023-05-17T03:37:29;97520.63;;;7.61
78917;BMP280;68315;48.608;11.436;2023-05-17T03:39:55;97517.63;;;7.59
78917;BMP280;68315;48.608;11.436;2023-05-17T03:42:20;97527.56;;;7.56
78917;BMP280;68315;48.608;11.436;2023-05-17T03:44:45;97521.88;;;7.54
78917;BMP280;68315;48.608;11.436;2023-05-17T03:47:10;97533.31;;;7.53
78917;BMP280;68315;48.608;11.436;2023-05-17T03:49:35;97527.09;;;7.52
78917;BMP280;68315;48.608;11.436;2023-05-17T03:52:01;97538.50;;;7.51
78917;BMP280;68315;48.608;11.436;2023-05-17T03:54:27;97537.28;;;7.52
78917;BMP280;68315;48.608;11.436;2023-05-17T03:56:52;97542.25;;;7.53
78917;BMP280;68315;48.608;11.436;2023-05-17T03:59:17;97545.50;;;7.57
78917;BMP280;68315;48.608;11.436;2023-05-17T04:01:43;97553.69;;;7.57
78917;BMP280;68315;48.608;11.436;2023-05-17T04:04:09;97557.19;;;7.58
78917;BMP280;68315;48.608;11.436;2023-05-17T04:06:34;97557.66;;;7.56
78917;BMP280;68315;48.608;11.436;2023-05-17T04:09:00;97552.94;;;7.57
78917;BMP280;68315;48.608;11.436;2023-05-17T04:11:26;97557.41;;;7.54
78917;BMP280;68315;48.608;11.436;2023-05-17T04:13:52;97558.91;;;7.55
78917;BMP280;68315;48.608;11.436;2023-05-17T04:16:18;97566.84;;;7.59
78917;BMP280;68315;48.608;11.436;2023-05-17T04:18:43;97562.13;;;7.59
78917;BMP280;68315;48.608;11.436;2023-05-17T04:21:10;97564.88;;;7.59
78917;BMP280;68315;48.608;11.436;2023-05-17T04:23:35;97575.34;;;7.61
78917;BMP280;68315;48.608;11.436;2023-05-17T04:26:01;97571.31;;;7.62
78917;BMP280;68315;48.608;11.436;2023-05-17T04:28:28;97576.06;;;7.67
78917;BMP280;68315;48.608;11.436;2023-05-17T04:30:54;97583.75;;;7.74
78917;BMP280;68315;48.608;11.436;2023-05-17T04:33:20;97587.97;;;7.80
78917;BMP280;68315;48.608;11.436;2023-05-17T04:35:45;97589.94;;;7.86
78917;BMP280;68315;48.608;11.436;2023-05-17T04:38:11;97584.72;;;7.88
78917;BMP280;68315;48.608;11.436;2023-05-17T04:40:36;97590.69;;;7.92
78917;BMP280;68315;48.608;11.436;2023-05-17T04:43:02;97586.66;;;7.98
78917;BMP280;68315;48.608;11.436;2023-05-17T04:45:27;97597.63;;;8.04
78917;BMP280;68315;48.608;11.436;2023-05-17T04:47:53;97606.06;;;8.11
78917;BMP280;68315;48.608;11.436;2023-05-17T04:50:18;97603.78;;;8.21
78917;BMP280;68315;48.608;11.436;2023-05-17T04:52:47;97601.00;;;8.26
78917;BMP280;68315;48.608;11.436;2023-05-17T04:55:12;97602.50;;;8.33
78917;BMP280;68315;48.608;11.436;2023-05-17T04:57:38;97599.75;;;8.38
78917;BMP280;68315;48.608;11.436;2023-05-17T05:00:04;97610.19;;;8.45
78917;BMP280;68315;48.608;11.436;2023-05-17T05:02:42;97611.91;;;8.48
78917;BMP280;68315;48.608;11.436;2023-05-17T05:05:07;97610.16;;;8.51
78917;BMP280;68315;48.608;11.436;2023-05-17T05:07:34;97610.66;;;8.55
78917;BMP280;68315;48.608;11.436;2023-05-17T05:09:59;97619.53;;;8.67
78917;BMP280;68315;48.608;11.436;2023-05-17T05:12:25;97617.31;;;8.71
78917;BMP280;68315;48.608;11.436;2023-05-17T05:14:51;97621.78;;;8.74
78917;BMP280;68315;48.608;11.436;2023-05-17T05:17:16;97632.44;;;8.77
78917;BMP280;68315;48.608;11.436;2023-05-17T05:19:41;97629.19;;;8.79
78917;BMP280;68315;48.608;11.436;2023-05-17T05:22:07;97634.44;;;8.82
78917;BMP280;68315;48.608;11.436;2023-05-17T05:24:32;97632.88;;;8.87
78917;BMP280;68315;48.608;11.436;2023-05-17T05:26:57;97629.91;;;8.90
78917;BMP280;68315;48.608;11.436;2023-05-17T05:29:22;97638.34;;;8.92
78917;BMP280;68315;48.608;11.436;2023-05-17T05:31:48;97640.59;;;8.94
78917;BMP280;68315;48.608;11.436;2023-05-17T05:34:13;97646.03;;;8.99
78917;BMP280;68315;48.608;11.436;2023-05-17T05:36:38;97646.47;;;9.09
78917;BMP280;68315;48.608;11.436;2023-05-17T05:39:03;97640.00;;;9.12
78917;BMP280;68315;48.608;11.436;2023-05-17T05:41:30;97646.94;;;9.18
78917;BMP280;68315;48.608;11.436;2023-05-17T05:43:55;97643.63;;;9.25
78917;BMP280;68315;48.608;11.436;2023-05-17T05:46:20;97654.56;;;9.31
78917;BMP280;68315;48.608;11.436;2023-05-17T05:48:46;97644.78;;;9.41
78917;BMP280;68315;48.608;11.436;2023-05-17T05:51:11;97651.38;;;9.57
78917;BMP280;68315;48.608;11.436;2023-05-17T05:53:37;97660.28;;;9.68
78917;BMP280;68315;48.608;11.436;2023-05-17T05:56:03;97652.59;;;9.85
78917;BMP280;68315;48.608;11.436;2023-05-17T05:58:28;97655.97;;;10.02
78917;BMP280;68315;48.608;11.436;2023-05-17T06:00:55;97647.81;;;10.16
78917;BMP280;68315;48.608;11.436;2023-05-17T06:03:21;97654.69;;;10.28
78917;BMP280;68315;48.608;11.436;2023-05-17T06:05:47;97657.78;;;10.43
78917;BMP280;68315;48.608;11.436;2023-05-17T06:08:12;97653.63;;;10.55
78917;BMP280;68315;48.608;11.436;2023-05-17T06:10:37;97653.25;;;10.64
78917;BMP280;68315;48.608;11.436;2023-05-17T06:13:02;97651.00;;;10.68
78917;BMP280;68315;48.608;11.436;2023-05-17T06:15:29;97655.66;;;10.73
78917;BMP280;68315;48.608;11.436;2023-05-17T06:17:55;97657.28;;;10.81
78917;BMP280;68315;48.608;11.436;2023-05-17T06:20:20;97660.56;;;10.99
78917;BMP280;68315;48.608;11.436;2023-05-17T06:22:45;97654.53;;;11.19
78917;BMP280;68315;48.608;11.436;2023-05-17T06:25:10;97658.28;;;11.34
78917;BMP280;68315;48.608;11.436;2023-05-17T06:27:36;97665.19;;;11.41
78917;BMP280;68315;48.608;11.436;2023-05-17T06:30:02;97669.88;;;11.59
78917;BMP280;68315;48.608;11.436;2023-05-17T06:32:29;97668.03;;;11.80
78917;BMP280;68315;48.608;11.436;2023-05-17T06:34:54;97679.28;;;11.95
78917;BMP280;68315;48.608;11.436;2023-05-17T06:37:19;97685.09;;;12.05
78917;BMP280;68315;48.608;11.436;2023-05-17T06:39:44;97680.16;;;12.16
78917;BMP280;68315;48.608;11.436;2023-05-17T06:42:10;97674.00;;;12.23
78917;BMP280;68315;48.608;11.436;2023-05-17T06:44:35;97684.31;;;12.23
78917;BMP280;68315;48.608;11.436;2023-05-17T06:47:00;97679.41;;;12.29
78917;BMP280;68315;48.608;11.436;2023-05-17T06:49:26;97686.38;;;12.43
78917;BMP280;68315;48.608;11.436;2023-05-17T06:51:51;97681.09;;;12.58
78917;BMP280;68315;48.608;11.436;2023-05-17T06:54:18;97685.94;;;12.78
78917;BMP280;68315;48.608;11.436;2023-05-17T06:56:44;97686.94;;;13.01
78917;BMP280;68315;48.608;11.436;2023-05-17T06:59:09;97686.47;;;13.10
78917;BMP280;68315;48.608;11.436;2023-05-17T07:01:34;97691.19;;;13.23
78917;BMP280;68315;48.608;11.436;2023-05-17T07:04:00;97695.19;;;13.35
78917;BMP280;68315;48.608;11.436;2023-05-17T07:06:25;97694.72;;;13.44
78917;BMP280;68315;48.608;11.436;2023-05-17T07:08:50;97694.38;;;13.47
78917;BMP280;68315;48.608;11.436;2023-05-17T07:11:15;97695.66;;;13.67
78917;BMP280;68315;48.608;11.436;2023-05-17T07:13:41;97697.59;;;13.80
78917;BMP280;68315;48.608;11.436;2023-05-17T07:16:07;97695.97;;;13.84
78917;BMP280;68315;48.608;11.436;2023-05-17T07:18:32;97696.81;;;14.00
78917;BMP280;68315;48.608;11.436;2023-05-17T07:20:57;97701.31;;;14.10
78917;BMP280;68315;48.608;11.436;2023-05-17T07:23:23;97703.09;;;14.28
78917;BMP280;68315;48.608;11.436;2023-05-17T07:25:48;97698.91;;;14.42
78917;BMP280;68315;48.608;11.436;2023-05-17T07:28:13;97703.38;;;14.53
78917;BMP280;68315;48.608;11.436;2023-05-17T07:30:39;97706.22;;;14.68
78917;BMP280;68315;48.608;11.436;2023-05-17T07:33:04;97704.22;;;14.76
78917;BMP280;68315;48.608;11.436;2023-05-17T07:35:30;97692.09;;;14.87
78917;BMP280;68315;48.608;11.436;2023-05-17T07:37:55;97694.91;;;15.02
78917;BMP280;68315;48.608;11.436;2023-05-17T07:40:20;97695.34;;;15.21
78917;BMP280;68315;48.608;11.436;2023-05-17T07:42:52;97700.69;;;15.34
78917;BMP280;68315;48.608;11.436;2023-05-17T07:45:18;97700.88;;;15.43
78917;BMP280;68315;48.608;11.436;2023-05-17T07:47:43;97701.41;;;15.50
78917;BMP280;68315;48.608;11.436;2023-05-17T07:50:09;97701.81;;;15.54
78917;BMP280;68315;48.608;11.436;2023-05-17T07:52:34;97703.28;;;15.55
78917;BMP280;68315;48.608;11.436;2023-05-17T07:54:59;97705.16;;;15.52
78917;BMP280;68315;48.608;11.436;2023-05-17T07:57:25;97707.16;;;15.52
78917;BMP280;68315;48.608;11.436;2023-05-17T07:59:51;97702.34;;;15.44
78917;BMP280;68315;48.608;11.436;2023-05-17T08:02:16;97705.69;;;15.51
78917;BMP280;68315;48.608;11.436;2023-05-17T08:04:41;97701.25;;;15.63
78917;BMP280;68315;48.608;11.436;2023-05-17T08:07:10;97709.75;;;15.57
78917;BMP280;68315;48.608;11.436;2023-05-17T08:09:35;97707.72;;;15.58
78917;BMP280;68315;48.608;11.436;2023-05-17T08:12:01;97707.16;;;15.67
78917;BMP280;68315;48.608;11.436;2023-05-17T08:14:26;97715.47;;;15.82
78917;BMP280;68315;48.608;11.436;2023-05-17T08:17:00;97700.13;;;15.81
78917;BMP280;68315;48.608;11.436;2023-05-17T08:19:26;97705.31;;;15.84
78917;BMP280;68315;48.608;11.436;2023-05-17T08:21:51;97697.91;;;15.94
78917;BMP280;68315;48.608;11.436;2023-05-17T08:24:16;97708.22;;;16.09
78917;BMP280;68315;48.608;11.436;2023-05-17T08:26:42;97713.16;;;16.25
78917;BMP280;68315;48.608;11.436;2023-05-17T08:29:07;97718.31;;;16.44
78917;BMP280;68315;48.608;11.436;2023-05-17T08:31:38;97715.41;;;16.74
78917;BMP280;68315;48.608;11.436;2023-05-17T08:34:03;97704.03;;;16.87
78917;BMP280;68315;48.608;11.436;2023-05-17T08:36:29;97702.53;;;16.94
78917;BMP280;68315;48.608;11.436;2023-05-17T08:38:54;97710.13;;;17.25
78917;BMP280;68315;48.608;11.436;2023-05-17T08:41:19;97713.94;;;17.30
78917;BMP280;68315;48.608;11.436;2023-05-17T08:43:46;97716.25;;;17.48
78917;BMP280;68315;48.608;11.436;2023-05-17T08:46:13;97708.13;;;17.68
78917;BMP280;68315;48.608;11.436;2023-05-17T08:48:41;97714.59;;;17.45
78917;BMP280;68315;48.608;11.436;2023-05-17T08:51:07;97709.22;;;17.23
78917;BMP280;68315;48.608;11.436;2023-05-17T08:53:36;97714.66;;;16.81
78917;BMP280;68315;48.608;11.436;2023-05-17T08:56:02;97713.72;;;16.31
78917;BMP280;68315;48.608;11.436;2023-05-17T08:58:32;97715.94;;;16.33
78917;BMP280;68315;48.608;11.436;2023-05-17T09:00:58;97725.03;;;16.73
78917;BMP280;68315;48.608;11.436;2023-05-17T09:03:24;97711.88;;;16.81
78917;BMP280;68315;48.608;11.436;2023-05-17T09:05:50;97714.75;;;16.51
78917;BMP280;68315;48.608;11.436;2023-05-17T09:08:20;97718.72;;;16.25
78917;BMP280;68315;48.608;11.436;2023-05-17T09:10:46;97726.97;;;16.56
78917;BMP280;68315;48.608;11.436;2023-05-17T09:13:12;97734.88;;;17.06
78917;BMP280;68315;48.608;11.436;2023-05-17T09:15:38;97739.00;;;17.55
78917;BMP280;68315;48.608;11.436;2023-05-17T09:18:10;97739.06;;;17.89
78917;BMP280;68315;48.608;11.436;2023-05-17T09:20:39;97747.38;;;18.13
78917;BMP280;68315;48.608;11.436;2023-05-17T09:23:09;97747.53;;;18.32
78917;BMP280;68315;48.608;11.436;2023-05-17T09:25:37;97754.31;;;18.39
78917;BMP280;68315;48.608;11.436;2023-05-17T09:28:14;97748.56;;;18.71
78917;BMP280;68315;48.608;11.436;2023-05-17T09:30:39;97756.22;;;18.97
78917;BMP280;68315;48.608;11.436;2023-05-17T09:33:09;97763.38;;;19.27
78917;BMP280;68315;48.608;11.436;2023-05-17T09:35:36;97758.56;;;19.63
78917;BMP280;68315;48.608;11.436;2023-05-17T09:38:10;97754.91;;;19.70
78917;BMP280;68315;48.608;11.436;2023-05-17T09:40:42;97745.38;;;19.83
78917;BMP280;68315;48.608;11.436;2023-05-17T09:43:09;97747.88;;;19.43
78917;BMP280;68315;48.608;11.436;2023-05-17T09:45:35;97756.75;;;18.96
78917;BMP280;68315;48.608;11.436;2023-05-17T09:48:29;97748.31;;;18.59
78917;BMP280;68315;48.608;11.436;2023-05-17T09:50:55;97753.97;;;18.35
78917;BMP280;68315;48.608;11.436;2023-05-17T09:53:24;97755.28;;;18.00
78917;BMP280;68315;48.608;11.436;2023-05-17T09:55:55;97741.94;;;17.57
78917;BMP280;68315;48.608;11.436;2023-05-17T09:58:21;97751.44;;;17.21
78917;BMP280;68315;48.608;11.436;2023-05-17T10:00:52;97753.19;;;17.09
78917;BMP280;68315;48.608;11.436;2023-05-17T10:03:21;97749.22;;;17.69
78917;BMP280;68315;48.608;11.436;2023-05-17T10:05:49;97751.72;;;18.24
78917;BMP280;68315;48.608;11.436;2023-05-17T10:08:16;97742.78;;;18.25
78917;BMP280;68315;48.608;11.436;2023-05-17T10:10:42;97744.25;;;18.26
78917;BMP280;68315;48.608;11.436;2023-05-17T10:13:09;97737.47;;;18.20
78917;BMP280;68315;48.608;11.436;2023-05-17T10:15:35;97744.53;;;18.64
78917;BMP280;68315;48.608;11.436;2023-05-17T10:18:02;97736.19;;;19.18
78917;BMP280;68315;48.608;11.436;2023-05-17T10:20:28;97729.34;;;19.64
78917;BMP280;68315;48.608;11.436;2023-05-17T10:22:54;97721.03;;;20.22
78917;BMP280;68315;48.608;11.436;2023-05-17T10:25:21;97718.97;;;20.51
78917;BMP280;68315;48.608;11.436;2023-05-17T10:27:49;97720.16;;;20.29
78917;BMP280;68315;48.608;11.436;2023-05-17T10:30:16;97723.41;;;20.06
78917;BMP280;68315;48.608;11.436;2023-05-17T10:32:44;97710.44;;;19.92
78917;BMP280;68315;48.608;11.436;2023-05-17T10:35:09;97720.53;;;19.77
78917;BMP280;68315;48.608;11.436;2023-05-17T10:37:36;97709.69;;;19.62
78917;BMP280;68315;48.608;11.436;2023-05-17T10:40:01;97717.25;;;19.52
78917;BMP280;68315;48.608;11.436;2023-05-17T10:42:29;97713.88;;;19.44
78917;BMP280;68315;48.608;11.436;2023-05-17T10:44:55;97712.47;;;18.90
78917;BMP280;68315;48.608;11.436;2023-05-17T10:47:21;97712.25;;;18.35
78917;BMP280;68315;48.608;11.436;2023-05-17T10:49:55;97702.44;;;18.00
78917;BMP280;68315;48.608;11.436;2023-05-17T10:52:21;97699.56;;;17.73
78917;BMP280;68315;48.608;11.436;2023-05-17T10:54:48;97710.00;;;17.65
78917;BMP280;68315;48.608;11.436;2023-05-17T10:57:33;97704.97;;;18.05
78917;BMP280;68315;48.608;11.436;2023-05-17T11:00:00;97698.00;;;18.14
78917;BMP280;68315;48.608;11.436;2023-05-17T11:02:28;97698.47;;;18.54
78917;BMP280;68315;48.608;11.436;2023-05-17T11:04:54;97688.41;;;18.58
78917;BMP280;68315;48.608;11.436;2023-05-17T11:07:27;97705.16;;;18.95
78917;BMP280;68315;48.608;11.436;2023-05-17T11:12:34;97689.19;;;18.69
78917;BMP280;68315;48.608;11.436;2023-05-17T11:15:06;97695.22;;;18.48
78917;BMP280;68315;48.608;11.436;2023-05-17T11:17:48;97682.59;;;18.64
78917;BMP280;68315;48.608;11.436;2023-05-17T11:22:41;97686.38;;;18.95
78917;BMP280;68315;48.608;11.436;2023-05-17T11:25:11;97684.22;;;19.39
78917;BMP280;68315;48.608;11.436;2023-05-17T11:27:48;97683.34;;;19.37
78917;BMP280;68315;48.608;11.436;2023-05-17T11:30:24;97682.00;;;19.28
78917;BMP280;68315;48.608;11.436;2023-05-17T11:33:01;97676.38;;;19.19
78917;BMP280;68315;48.608;11.436;2023-05-17T11:35:28;97675.13;;;19.39
78917;BMP280;68315;48.608;11.436;2023-05-17T11:38:25;97679.75;;;20.30
78917;BMP280;68315;48.608;11.436;2023-05-17T11:40:53;97669.50;;;20.72
78917;BMP280;68315;48.608;11.436;2023-05-17T11:43:20;97666.38;;;20.78
78917;BMP280;68315;48.608;11.436;2023-05-17T11:45:55;97672.25;;;20.13
78917;BMP280;68315;48.608;11.436;2023-05-17T11:48:28;97674.50;;;19.76
78917;BMP280;68315;48.608;11.436;2023-05-17T11:50:55;97682.09;;;19.66
78917;BMP280;68315;48.608;11.436;2023-05-17T11:53:23;97671.66;;;20.34
78917;BMP280;68315;48.608;11.436;2023-05-17T11:55:49;97676.69;;;20.07
78917;BMP280;68315;48.608;11.436;2023-05-17T11:58:18;97673.72;;;20.33
78917;BMP280;68315;48.608;11.436;2023-05-17T12:00:44;97671.97;;;20.09
78917;BMP280;68315;48.608;11.436;2023-05-17T12:03:17;97683.56;;;19.87
78917;BMP280;68315;48.608;11.436;2023-05-17T12:05:43;97672.22;;;19.65
78917;BMP280;68315;48.608;11.436;2023-05-17T12:08:08;97679.13;;;19.45
78917;BMP280;68315;48.608;11.436;2023-05-17T12:10:34;97680.19;;;19.78
78917;BMP280;68315;48.608;11.436;2023-05-17T12:12:59;97665.53;;;19.97
78917;BMP280;68315;48.608;11.436;2023-05-17T12:15:26;97677.88;;;19.85
78917;BMP280;68315;48.608;11.436;2023-05-17T12:17:53;97671.31;;;19.44
78917;BMP280;68315;48.608;11.436;2023-05-17T12:20:19;97680.84;;;19.31
78917;BMP280;68315;48.608;11.436;2023-05-17T12:22:54;97685.34;;;19.72
78917;BMP280;68315;48.608;11.436;2023-05-17T12:25:21;97670.94;;;19.66
78917;BMP280;68315;48.608;11.436;2023-05-17T12:27:49;97680.84;;;19.41
78917;BMP280;68315;48.608;11.436;2023-05-17T12:30:15;97684.19;;;19.30
78917;BMP280;68315;48.608;11.436;2023-05-17T12:32:43;97688.13;;;19.17
78917;BMP280;68315;48.608;11.436;2023-05-17T12:35:10;97689.41;;;19.16
78917;BMP280;68315;48.608;11.436;2023-05-17T12:37:36;97686.94;;;19.75
78917;BMP280;68315;48.608;11.436;2023-05-17T12:40:01;97685.06;;;19.88
78917;BMP280;68315;48.608;11.436;2023-05-17T12:42:30;97689.47;;;19.81
78917;BMP280;68315;48.608;11.436;2023-05-17T12:44:58;97687.38;;;19.62
78917;BMP280;68315;48.608;11.436;2023-05-17T12:47:24;97688.66;;;19.42
78917;BMP280;68315;48.608;11.436;2023-05-17T12:49:53;97693.03;;;19.36
78917;BMP280;68315;48.608;11.436;2023-05-17T12:52:18;97696.16;;;19.68
78917;BMP280;68315;48.608;11.436;2023-05-17T12:54:43;97680.94;;;20.27
78917;BMP280;68315;48.608;11.436;2023-05-17T12:57:12;97680.13;;;20.64
78917;BMP280;68315;48.608;11.436;2023-05-17T12:59:52;97679.59;;;20.47
78917;BMP280;68315;48.608;11.436;2023-05-17T13:02:18;97681.22;;;20.02
78917;BMP280;68315;48.608;11.436;2023-05-17T13:04:44;97688.25;;;19.65
78917;BMP280;68315;48.608;11.436;2023-05-17T13:07:10;97696.59;;;19.55
78917;BMP280;68315;48.608;11.436;2023-05-17T13:09:45;97697.19;;;19.63
78917;BMP280;68315;48.608;11.436;2023-05-17T13:12:17;97690.56;;;19.49
78917;BMP280;68315;48.608;11.436;2023-05-17T13:14:45;97701.38;;;19.36
78917;BMP280;68315;48.608;11.436;2023-05-17T13:19:41;97691.28;;;19.04
78917;BMP280;68315;48.608;11.436;2023-05-17T13:22:06;97688.63;;;18.97
78917;BMP280;68315;48.608;11.436;2023-05-17T13:24:38;97691.53;;;18.89
78917;BMP280;68315;48.608;11.436;2023-05-17T13:27:04;97688.88;;;19.27
78917;BMP280;68315;48.608;11.436;2023-05-17T13:29:31;97685.03;;;19.78
78917;BMP280;68315;48.608;11.436;2023-05-17T13:31:57;97680.06;;;20.15
78917;BMP280;68315;48.608;11.436;2023-05-17T13:34:25;97689.44;;;20.29
78917;BMP280;68315;48.608;11.436;2023-05-17T13:36:50;97694.59;;;20.32
78917;BMP280;68315;48.608;11.436;2023-05-17T13:39:16;97689.44;;;20.29
78917;BMP280;68315;48.608;11.436;2023-05-17T13:41:41;97700.91;;;20.33
78917;BMP280;68315;48.608;11.436;2023-05-17T13:44:07;97697.66;;;20.46
78917;BMP280;68315;48.608;11.436;2023-05-17T13:46:32;97704.75;;;20.87
78917;BMP280;68315;48.608;11.436;2023-05-17T13:48:59;97700.22;;;21.43
78917;BMP280;68315;48.608;11.436;2023-05-17T13:51:24;97694.97;;;22.01
78917;BMP280;68315;48.608;11.436;2023-05-17T13:53:59;97695.69;;;22.01
78917;BMP280;68315;48.608;11.436;2023-05-17T13:56:24;97696.94;;;21.56
78917;BMP280;68315;48.608;11.436;2023-05-17T13:58:50;97693.16;;;20.81
78917;BMP280;68315;48.608;11.436;2023-05-17T14:01:16;97699.88;;;20.28
78917;BMP280;68315;48.608;11.436;2023-05-17T14:03:43;97696.06;;;19.95
78917;BMP280;68315;48.608;11.436;2023-05-17T14:06:08;97700.59;;;19.71
78917;BMP280;68315;48.608;11.436;2023-05-17T14:08:33;97686.31;;;19.58
78917;BMP280;68315;48.608;11.436;2023-05-17T14:10:59;97693.97;;;19.67
78917;BMP280;68315;48.608;11.436;2023-05-17T14:13:25;97700.47;;;19.79